createdAt,value
2019-04-19T00:01:02.906Z,1002.52
2019-04-19T00:02:04.991Z,1002.53
2019-04-19T00:03:00.278Z,1002.51
2019-04-19T00:04:07.838Z,1002.50
2019-04-19T00:05:03.066Z,1002.50
2019-04-19T00:07:02.383Z,1002.49
2019-04-19T00:08:11.669Z,1002.49
2019-04-19T00:09:08.977Z,1002.48
2019-04-19T00:14:18.964Z,1002.46
2019-04-19T00:16:19.487Z,1002.48
2019-04-19T00:17:23.414Z,1002.51
2019-04-19T00:18:20.981Z,1002.47
2019-04-19T00:19:33.217Z,1002.51
2019-04-19T00:20:36.795Z,1002.52
2019-04-19T00:21:34.760Z,1002.52
2019-04-19T00:22:33.235Z,1002.50
2019-04-19T00:26:20.869Z,1002.54
2019-04-19T00:27:18.541Z,1002.53
2019-04-19T00:28:25.937Z,1002.49
2019-04-19T00:29:25.702Z,1002.53
2019-04-19T00:30:36.396Z,1002.52
2019-04-19T00:31:30.864Z,1002.53
2019-04-19T00:32:33.885Z,1002.48
2019-04-19T00:33:28.544Z,1002.50
2019-04-19T00:34:18.841Z,1002.53
2019-04-19T00:35:18.778Z,1002.51
2019-04-19T00:36:19.868Z,1002.55
2019-04-19T00:37:18.843Z,1002.52
2019-04-19T00:38:35.710Z,1002.56
2019-04-19T00:39:33.724Z,1002.53
2019-04-19T00:40:36.355Z,1002.54
2019-04-19T00:41:35.775Z,1002.56
2019-04-19T00:42:35.690Z,1002.56
2019-04-19T00:43:38.930Z,1002.55
2019-04-19T00:44:39.905Z,1002.57
2019-04-19T00:45:31.104Z,1002.56
2019-04-19T00:46:35.444Z,1002.54
2019-04-19T00:47:35.544Z,1002.56
2019-04-19T00:48:39.108Z,1002.55
2019-04-19T00:49:27.942Z,1002.60
2019-04-19T00:50:29.391Z,1002.56
2019-04-19T00:51:36.418Z,1002.58
2019-04-19T00:52:38.337Z,1002.60
2019-04-19T00:53:28.655Z,1002.60
2019-04-19T00:54:28.016Z,1002.55
2019-04-19T00:55:25.741Z,1002.60
2019-04-19T00:56:31.232Z,1002.59
2019-04-19T00:57:32.559Z,1002.58
2019-04-19T00:58:24.970Z,1002.62
2019-04-19T00:59:21.093Z,1002.60
2019-04-19T01:00:25.812Z,1002.59
2019-04-19T01:01:24.175Z,1002.61
2019-04-19T01:02:21.427Z,1002.63
2019-04-19T01:03:27.463Z,1002.61
2019-04-19T01:04:25.052Z,1002.59
2019-04-19T01:05:23.284Z,1002.64
2019-04-19T01:06:21.943Z,1002.64
2019-04-19T01:07:26.282Z,1002.61
2019-04-19T01:08:23.219Z,1002.65
2019-04-19T01:09:35.540Z,1002.69
2019-04-19T01:10:35.086Z,1002.66
2019-04-19T01:11:31.806Z,1002.68
2019-04-19T01:12:29.071Z,1002.64
2019-04-19T01:13:38.129Z,1002.67
2019-04-19T01:14:30.074Z,1002.73
2019-04-19T01:15:30.991Z,1002.69
2019-04-19T01:16:30.977Z,1002.71
2019-04-19T01:17:33.273Z,1002.69
2019-04-19T01:18:29.716Z,1002.75
2019-04-19T01:19:22.391Z,1002.75
2019-04-19T01:20:20.475Z,1002.75
2019-04-19T01:21:20.156Z,1002.77
2019-04-19T01:22:23.940Z,1002.79
2019-04-19T01:23:21.359Z,1002.85
2019-04-19T01:24:26.488Z,1002.79
2019-04-19T01:25:24.067Z,1002.79
2019-04-19T01:26:21.413Z,1002.78
2019-04-19T01:27:24.856Z,1002.79
2019-04-19T01:28:23.889Z,1002.82
2019-04-19T01:29:21.806Z,1002.82
2019-04-19T01:30:26.612Z,1002.82
2019-04-19T01:31:24.583Z,1002.82
2019-04-19T01:32:22.597Z,1002.84
2019-04-19T01:33:28.260Z,1002.83
2019-04-19T01:34:23.968Z,1002.85
2019-04-19T01:35:21.878Z,1002.92
2019-04-19T01:36:27.729Z,1002.87
2019-04-19T01:37:23.962Z,1002.87
2019-04-19T01:38:21.162Z,1002.88
2019-04-19T01:39:32.497Z,1002.86
2019-04-19T01:40:35.341Z,1002.89
2019-04-19T01:41:37.301Z,1002.93
2019-04-19T01:42:36.729Z,1002.90
2019-04-19T01:43:41.259Z,1002.89
2019-04-19T01:44:41.212Z,1002.90
2019-04-19T01:45:41.850Z,1002.93
2019-04-19T01:46:38.982Z,1002.89
2019-04-19T01:47:36.343Z,1002.96
2019-04-19T01:48:39.501Z,1002.96
2019-04-19T01:49:36.986Z,1003.00
2019-04-19T01:50:38.376Z,1002.96
2019-04-19T01:51:45.046Z,1002.98
2019-04-19T01:52:47.621Z,1002.98
2019-04-19T01:53:39.411Z,1002.99
2019-04-19T01:54:35.824Z,1002.98
2019-04-19T01:55:28.313Z,1002.97
2019-04-19T01:56:22.036Z,1002.98
2019-04-19T01:57:24.367Z,1002.95
2019-04-19T01:58:22.635Z,1002.95
2019-04-19T01:59:24.799Z,1002.97
2019-04-19T02:00:29.171Z,1002.95
2019-04-19T02:01:25.963Z,1002.98
2019-04-19T02:02:25.750Z,1002.99
2019-04-19T02:03:23.414Z,1003.04
2019-04-19T02:04:25.220Z,1003.03
2019-04-19T02:05:23.556Z,1002.97
2019-04-19T02:06:28.773Z,1003.00
2019-04-19T02:07:25.828Z,1003.04
2019-04-19T02:08:22.728Z,1003.00
2019-04-19T02:09:32.744Z,1002.98
2019-04-19T02:10:37.753Z,1003.00
2019-04-19T02:11:33.340Z,1002.97
2019-04-19T02:12:34.555Z,1003.00
2019-04-19T02:13:28.843Z,1003.00
2019-04-19T02:14:27.033Z,1003.01
2019-04-19T02:15:33.127Z,1003.04
2019-04-19T02:16:23.848Z,1003.02
2019-04-19T02:17:23.060Z,1003.04
2019-04-19T02:18:24.588Z,1003.04
2019-04-19T02:19:26.471Z,1003.07
2019-04-19T02:20:22.286Z,1003.05
2019-04-19T02:22:11.239Z,1003.12
2019-04-19T02:23:08.296Z,1003.10
2019-04-19T02:24:06.772Z,1003.13
2019-04-19T02:25:12.583Z,1003.19
2019-04-19T02:26:09.579Z,1003.20
2019-04-19T02:27:09.146Z,1003.20
2019-04-19T02:28:08.190Z,1003.24
2019-04-19T02:29:11.231Z,1003.21
2019-04-19T02:30:14.067Z,1003.28
2019-04-19T02:31:27.606Z,1003.28
2019-04-19T02:32:22.263Z,1003.22
2019-04-19T02:33:32.686Z,1003.27
2019-04-19T02:35:35.037Z,1003.30
2019-04-19T02:36:35.651Z,1003.30
2019-04-19T02:37:24.603Z,1003.32
2019-04-19T02:38:36.660Z,1003.29
2019-04-19T02:39:38.552Z,1003.32
2019-04-19T02:41:53.360Z,1003.34
2019-04-19T02:42:40.668Z,1003.34
2019-04-19T02:43:37.867Z,1003.36
2019-04-19T02:44:36.479Z,1003.38
2019-04-19T02:45:29.112Z,1003.37
2019-04-19T02:46:52.866Z,1003.37
2019-04-19T02:47:42.182Z,1003.44
2019-04-19T02:48:42.399Z,1003.43
2019-04-19T02:49:35.943Z,1003.43
2019-04-19T02:50:56.241Z,1003.42
2019-04-19T02:51:33.042Z,1003.46
2019-04-19T02:53:37.428Z,1003.48
2019-04-19T02:54:38.211Z,1003.47
2019-04-19T02:55:29.284Z,1003.52
2019-04-19T02:56:46.763Z,1003.47
2019-04-19T02:57:36.370Z,1003.45
2019-04-19T02:58:38.359Z,1003.49
2019-04-19T02:59:41.387Z,1003.48
2019-04-19T03:00:40.179Z,1003.55
2019-04-19T03:01:41.932Z,1003.53
2019-04-19T03:02:42.045Z,1003.52
2019-04-19T03:03:27.458Z,1003.53
2019-04-19T03:05:36.560Z,1003.52
2019-04-19T03:06:21.572Z,1003.57
2019-04-19T03:07:09.141Z,1003.55
2019-04-19T03:08:06.220Z,1003.58
2019-04-19T03:09:07.131Z,1003.61
2019-04-19T03:10:14.001Z,1003.60
2019-04-19T03:11:19.823Z,1003.60
2019-04-19T03:12:26.631Z,1003.62
2019-04-19T03:13:21.713Z,1003.59
2019-04-19T03:14:16.442Z,1003.63
2019-04-19T03:15:18.998Z,1003.65
2019-04-19T03:16:25.546Z,1003.62
2019-04-19T03:17:24.573Z,1003.65
2019-04-19T03:18:34.046Z,1003.63
2019-04-19T03:19:18.192Z,1003.68
2019-04-19T03:20:22.096Z,1003.64
2019-04-19T03:21:27.780Z,1003.66
2019-04-19T03:22:23.474Z,1003.65
2019-04-19T03:23:18.849Z,1003.70
2019-04-19T03:24:18.949Z,1003.67
2019-04-19T03:25:18.358Z,1003.71
2019-04-19T03:26:20.837Z,1003.70
2019-04-19T03:27:15.323Z,1003.73
2019-04-19T03:28:18.586Z,1003.70
2019-04-19T03:29:12.168Z,1003.71
2019-04-19T03:30:23.519Z,1003.68
2019-04-19T03:31:38.349Z,1003.69
2019-04-19T03:32:44.900Z,1003.70
2019-04-19T03:34:16.215Z,1003.71
2019-04-19T03:35:04.037Z,1003.73
2019-04-19T03:36:05.627Z,1003.75
2019-04-19T03:37:06.351Z,1003.75
2019-04-19T03:38:08.520Z,1003.75
2019-04-19T03:39:11.706Z,1003.80
2019-04-19T03:40:19.167Z,1003.78
2019-04-19T03:41:15.655Z,1003.75
2019-04-19T03:42:12.960Z,1003.80
2019-04-19T03:44:06.859Z,1003.78
2019-04-19T03:45:08.629Z,1003.79
2019-04-19T03:46:08.711Z,1003.76
2019-04-19T03:47:09.510Z,1003.82
2019-04-19T03:48:12.229Z,1003.83
2019-04-19T03:49:13.565Z,1003.82
2019-04-19T03:50:13.399Z,1003.81
2019-04-19T03:51:41.306Z,1003.83
2019-04-19T03:52:14.622Z,1003.83
2019-04-19T03:53:09.178Z,1003.87
2019-04-19T03:54:08.325Z,1003.87
2019-04-19T03:55:09.626Z,1003.86
2019-04-19T03:56:09.422Z,1003.86
2019-04-19T03:57:04.745Z,1003.85
2019-04-19T03:57:58.124Z,1003.90
2019-04-19T03:58:52.446Z,1003.91
2019-04-19T03:59:50.140Z,1003.89
2019-04-19T04:00:50.339Z,1003.91
2019-04-19T04:01:54.793Z,1003.87
2019-04-19T04:02:51.252Z,1003.86
2019-04-19T04:03:51.379Z,1003.86
2019-04-19T04:04:58.262Z,1003.91
2019-04-19T04:05:53.012Z,1003.91
2019-04-19T04:06:50.540Z,1003.92
2019-04-19T04:07:59.274Z,1003.93
2019-04-19T04:08:55.282Z,1003.90
2019-04-19T04:09:55.432Z,1003.91
2019-04-19T04:12:00.488Z,1003.92
2019-04-19T04:13:02.165Z,1003.97
2019-04-19T04:14:04.819Z,1003.99
2019-04-19T04:15:04.766Z,1003.98
2019-04-19T04:16:03.525Z,1003.99
2019-04-19T04:16:53.163Z,1003.99
2019-04-19T04:17:50.306Z,1004.02
2019-04-19T04:18:51.333Z,1003.98
2019-04-19T04:19:50.479Z,1004.02
2019-04-19T04:20:53.729Z,1004.01
2019-04-19T04:22:54.466Z,1004.03
2019-04-19T04:23:59.978Z,1004.03
2019-04-19T04:24:58.235Z,1004.06
2019-04-19T04:25:59.198Z,1004.04
2019-04-19T04:27:03.069Z,1004.12
2019-04-19T04:28:02.003Z,1004.10
2019-04-19T04:29:03.531Z,1004.12
2019-04-19T04:30:04.854Z,1004.13
2019-04-19T04:31:00.857Z,1004.15
2019-04-19T04:32:01.502Z,1004.15
2019-04-19T04:35:09.794Z,1004.21
2019-04-19T04:36:11.663Z,1004.20
2019-04-19T04:37:09.907Z,1004.25
2019-04-19T04:38:51.723Z,1004.27
2019-04-19T04:39:51.434Z,1004.26
2019-04-19T04:40:50.960Z,1004.31
2019-04-19T04:41:58.353Z,1004.29
2019-04-19T04:43:03.896Z,1004.37
2019-04-19T04:44:07.931Z,1004.30
2019-04-19T04:45:20.570Z,1004.29
2019-04-19T04:46:20.061Z,1004.30
2019-04-19T04:47:11.662Z,1004.35
2019-04-19T04:48:05.345Z,1004.33
2019-04-19T04:49:13.623Z,1004.39
2019-04-19T04:51:14.417Z,1004.39
2019-04-19T04:52:04.198Z,1004.35
2019-04-19T04:52:52.708Z,1004.41
2019-04-19T04:55:57.939Z,1004.45
2019-04-19T04:57:02.536Z,1004.47
2019-04-19T04:57:57.259Z,1004.48
2019-04-19T04:58:52.463Z,1004.51
2019-04-19T04:59:54.235Z,1004.51
2019-04-19T05:00:58.924Z,1004.52
2019-04-19T05:01:58.642Z,1004.59
2019-04-19T05:03:03.745Z,1004.54
2019-04-19T05:04:08.754Z,1004.56
2019-04-19T05:05:11.397Z,1004.59
2019-04-19T05:07:12.168Z,1004.58
2019-04-19T05:08:14.212Z,1004.62
2019-04-19T05:09:14.057Z,1004.64
2019-04-19T05:10:09.324Z,1004.66
2019-04-19T05:15:07.644Z,1004.75
2019-04-19T05:16:16.168Z,1004.80
2019-04-19T05:19:09.805Z,1004.87
2019-04-19T05:20:41.013Z,1004.88
2019-04-19T05:21:16.121Z,1004.92
2019-04-19T05:24:25.344Z,1005.00
2019-04-19T05:25:19.453Z,1004.99
2019-04-19T05:26:26.628Z,1005.02
2019-04-19T05:29:06.895Z,1005.06
2019-04-19T05:29:55.821Z,1005.08
2019-04-19T05:30:58.679Z,1005.08
2019-04-19T05:31:56.130Z,1005.12
2019-04-19T05:33:04.755Z,1005.13
2019-04-19T05:34:17.695Z,1005.18
2019-04-19T05:35:08.399Z,1005.17
2019-04-19T05:38:07.197Z,1005.19
2019-04-19T05:39:17.283Z,1005.18
2019-04-19T05:40:09.479Z,1005.17
2019-04-19T05:41:02.321Z,1005.20
2019-04-19T05:42:05.197Z,1005.20
2019-04-19T05:43:17.904Z,1005.25
2019-04-19T05:44:21.035Z,1005.24
2019-04-19T05:45:31.538Z,1005.25
2019-04-19T05:47:13.465Z,1005.28
2019-04-19T05:48:02.533Z,1005.31
2019-04-19T05:51:43.783Z,1005.35
2019-04-19T05:52:39.537Z,1005.34
2019-04-19T05:53:27.940Z,1005.31
2019-04-19T05:54:20.438Z,1005.33
2019-04-19T05:55:20.462Z,1005.32
2019-04-19T05:56:19.997Z,1005.35
2019-04-19T05:57:35.965Z,1005.37
2019-04-19T05:58:25.067Z,1005.34
2019-04-19T05:59:33.358Z,1005.37
2019-04-19T06:00:33.920Z,1005.42
2019-04-19T06:01:36.471Z,1005.39
2019-04-19T06:02:29.601Z,1005.40
2019-04-19T06:03:27.244Z,1005.40
2019-04-19T06:04:37.425Z,1005.40
2019-04-19T06:05:44.526Z,1005.43
2019-04-19T06:06:45.705Z,1005.39
2019-04-19T06:07:37.389Z,1005.41
2019-04-19T06:08:26.534Z,1005.43
2019-04-19T06:09:19.689Z,1005.47
2019-04-19T06:10:19.387Z,1005.45
2019-04-19T06:11:26.226Z,1005.46
2019-04-19T06:12:23.640Z,1005.47
2019-04-19T06:13:20.686Z,1005.48
2019-04-19T06:14:45.457Z,1005.49
2019-04-19T06:15:42.880Z,1005.53
2019-04-19T06:16:35.964Z,1005.56
2019-04-19T06:17:36.798Z,1005.52
2019-04-19T06:18:33.076Z,1005.54
2019-04-19T06:19:35.299Z,1005.55
2019-04-19T06:20:33.766Z,1005.53
2019-04-19T06:21:39.224Z,1005.57
2019-04-19T06:22:40.587Z,1005.58
2019-04-19T06:23:44.173Z,1005.56
2019-04-19T06:24:36.910Z,1005.58
2019-04-19T06:25:46.495Z,1005.61
2019-04-19T06:26:53.408Z,1005.63
2019-04-19T06:27:53.075Z,1005.62
2019-04-19T06:28:44.238Z,1005.64
2019-04-19T06:29:46.205Z,1005.64
2019-04-19T06:30:41.459Z,1005.63
2019-04-19T06:31:39.568Z,1005.64
2019-04-19T06:32:33.917Z,1005.64
2019-04-19T06:33:37.620Z,1005.61
2019-04-19T06:34:36.504Z,1005.59
2019-04-19T06:35:32.662Z,1005.61
2019-04-19T06:36:20.933Z,1005.63
2019-04-19T06:37:24.750Z,1005.60
2019-04-19T06:38:20.459Z,1005.62
2019-04-19T06:39:20.495Z,1005.60
2019-04-19T06:40:26.466Z,1005.64
2019-04-19T06:41:23.246Z,1005.68
2019-04-19T06:42:31.868Z,1005.67
2019-04-19T06:43:35.099Z,1005.63
2019-04-19T06:44:43.696Z,1005.66
2019-04-19T06:45:35.609Z,1005.68
2019-04-19T06:46:36.388Z,1005.69
2019-04-19T06:47:28.768Z,1005.69
2019-04-19T06:48:26.638Z,1005.71
2019-04-19T06:49:25.090Z,1005.68
2019-04-19T06:50:27.478Z,1005.70
2019-04-19T06:51:28.509Z,1005.75
2019-04-19T06:52:25.941Z,1005.69
2019-04-19T06:53:20.942Z,1005.69
2019-04-19T06:54:28.581Z,1005.72
2019-04-19T06:55:26.804Z,1005.75
2019-04-19T06:56:28.324Z,1005.70
2019-04-19T06:57:27.282Z,1005.71
2019-04-19T06:58:24.931Z,1005.72
2019-04-19T06:59:39.437Z,1005.71
2019-04-19T07:00:36.331Z,1005.68
2019-04-19T07:01:31.372Z,1005.69
2019-04-19T07:02:22.140Z,1005.70
2019-04-19T07:03:21.614Z,1005.72
2019-04-19T07:04:21.179Z,1005.74
2019-04-19T07:05:33.816Z,1005.75
2019-04-19T07:06:36.437Z,1005.79
2019-04-19T07:07:36.525Z,1005.75
2019-04-19T07:09:46.175Z,1005.78
2019-04-19T07:11:46.045Z,1005.80
2019-04-19T07:12:44.134Z,1005.78
2019-04-19T07:13:35.972Z,1005.81
2019-04-19T07:14:26.342Z,1005.77
2019-04-19T07:16:04.236Z,1005.77
2019-04-19T07:16:51.460Z,1005.82
2019-04-19T07:17:37.597Z,1005.84
2019-04-19T07:18:33.834Z,1005.86
2019-04-19T07:19:38.951Z,1005.85
2019-04-19T07:20:33.857Z,1005.86
2019-04-19T07:21:37.213Z,1005.84
2019-04-19T07:22:40.042Z,1005.85
2019-04-19T07:23:43.771Z,1005.82
2019-04-19T07:24:45.783Z,1005.88
2019-04-19T07:26:00.082Z,1005.88
2019-04-19T07:26:38.747Z,1005.87
2019-04-19T07:27:35.875Z,1005.83
2019-04-19T07:28:26.403Z,1005.88
2019-04-19T07:29:22.116Z,1005.89
2019-04-19T07:30:22.546Z,1005.90
2019-04-19T07:31:21.848Z,1005.91
2019-04-19T07:32:31.934Z,1005.92
2019-04-19T07:33:38.943Z,1005.92
2019-04-19T07:34:40.765Z,1005.92
2019-04-19T07:35:47.345Z,1005.94
2019-04-19T07:36:40.341Z,1005.98
2019-04-19T07:37:39.819Z,1005.98
2019-04-19T07:38:57.567Z,1006.03
2019-04-19T07:39:48.162Z,1006.00
2019-04-19T07:40:42.947Z,1006.03
2019-04-19T07:41:37.663Z,1006.08
2019-04-19T07:42:39.834Z,1006.08
2019-04-19T07:43:36.541Z,1006.02
2019-04-19T07:44:31.677Z,1006.05
2019-04-19T07:45:30.944Z,1006.08
2019-04-19T07:46:38.736Z,1006.12
2019-04-19T07:47:36.761Z,1006.07
2019-04-19T07:48:24.572Z,1006.06
2019-04-19T07:49:23.357Z,1006.09
2019-04-19T07:50:27.819Z,1006.10
2019-04-19T07:51:28.639Z,1006.11
2019-04-19T07:52:26.310Z,1006.03
2019-04-19T07:53:31.291Z,1006.13
2019-04-19T07:54:26.336Z,1006.10
2019-04-19T07:55:22.736Z,1006.12
2019-04-19T07:56:35.644Z,1006.11
2019-04-19T07:59:02.599Z,1006.11
2019-04-19T07:59:48.476Z,1006.11
2019-04-19T08:02:49.668Z,1006.12
2019-04-19T08:06:58.707Z,1006.16
2019-04-19T08:08:06.696Z,1006.12
2019-04-19T08:09:02.295Z,1006.15
2019-04-19T08:09:53.572Z,1006.18
2019-04-19T08:15:04.493Z,1006.25
2019-04-19T08:15:54.661Z,1006.26
2019-04-19T08:17:31.298Z,1006.26
2019-04-19T08:27:33.210Z,1006.31
2019-04-19T08:28:31.156Z,1006.35
2019-04-19T08:29:35.253Z,1006.36
2019-04-19T08:30:33.884Z,1006.34
2019-04-19T08:31:25.118Z,1006.36
2019-04-19T08:32:23.887Z,1006.30
2019-04-19T08:33:23.925Z,1006.35
2019-04-19T08:34:27.278Z,1006.34
2019-04-19T08:35:23.990Z,1006.34
2019-04-19T08:36:29.801Z,1006.36
2019-04-19T08:38:28.672Z,1006.36
2019-04-19T08:39:42.873Z,1006.36
2019-04-19T08:40:44.024Z,1006.37
2019-04-19T08:41:39.789Z,1006.37
2019-04-19T08:42:41.553Z,1006.34
2019-04-19T08:43:41.511Z,1006.35
2019-04-19T08:44:38.589Z,1006.40
2019-04-19T08:45:26.928Z,1006.35
2019-04-19T08:46:24.375Z,1006.38
2019-04-19T08:47:32.633Z,1006.37
2019-04-19T08:48:33.531Z,1006.34
2019-04-19T08:49:31.094Z,1006.30
2019-04-19T08:50:24.518Z,1006.29
2019-04-19T08:51:28.639Z,1006.29
2019-04-19T08:52:29.117Z,1006.27
2019-04-19T08:53:40.393Z,1006.29
2019-04-19T08:54:49.106Z,1006.30
2019-04-19T08:55:41.828Z,1006.24
2019-04-19T08:57:27.538Z,1006.26
2019-04-19T08:58:47.997Z,1006.29
2019-04-19T08:59:50.891Z,1006.30
2019-04-19T09:00:52.008Z,1006.29
2019-04-19T09:01:44.517Z,1006.29
2019-04-19T09:02:44.112Z,1006.29
2019-04-19T09:03:49.067Z,1006.30
2019-04-19T09:04:44.015Z,1006.34
2019-04-19T09:05:42.156Z,1006.30
2019-04-19T09:09:51.908Z,1006.24
2019-04-19T09:10:47.065Z,1006.25
2019-04-19T09:11:49.835Z,1006.23
2019-04-19T09:12:47.230Z,1006.23
2019-04-19T09:13:47.975Z,1006.24
2019-04-19T09:14:48.327Z,1006.26
2019-04-19T09:15:39.539Z,1006.20
2019-04-19T09:16:56.053Z,1006.26
2019-04-19T09:18:08.866Z,1006.20
2019-04-19T09:18:50.428Z,1006.24
2019-04-19T09:20:00.989Z,1006.25
2019-04-19T09:20:48.047Z,1006.28
2019-04-19T09:21:39.496Z,1006.20
2019-04-19T09:22:43.877Z,1006.24
2019-04-19T09:23:37.269Z,1006.19
2019-04-19T09:24:37.021Z,1006.16
2019-04-19T09:25:37.090Z,1006.17
2019-04-19T09:26:43.758Z,1006.18
2019-04-19T09:27:56.290Z,1006.18
2019-04-19T09:29:10.881Z,1006.23
2019-04-19T09:29:45.429Z,1006.18
2019-04-19T09:30:42.394Z,1006.22
2019-04-19T09:31:35.974Z,1006.21
2019-04-19T09:32:29.197Z,1006.25
2019-04-19T09:33:30.824Z,1006.26
2019-04-19T09:34:27.058Z,1006.23
2019-04-19T09:35:31.065Z,1006.24
2019-04-19T09:36:34.703Z,1006.23
2019-04-19T09:37:41.670Z,1006.25
2019-04-19T09:38:39.644Z,1006.31
2019-04-19T09:39:42.574Z,1006.30
2019-04-19T09:41:59.224Z,1006.29
2019-04-19T09:43:02.855Z,1006.32
2019-04-19T09:44:02.953Z,1006.38
2019-04-19T09:44:56.311Z,1006.52
2019-04-19T09:45:51.616Z,1006.51
2019-04-19T09:46:52.899Z,1006.60
2019-04-19T09:47:52.469Z,1006.71
2019-04-19T09:49:09.614Z,1006.73
2019-04-19T09:50:04.367Z,1006.74
2019-04-19T09:51:07.569Z,1006.79
2019-04-19T09:52:11.409Z,1006.78
2019-04-19T09:53:25.008Z,1006.78
2019-04-19T09:54:16.240Z,1006.79
2019-04-19T09:55:17.272Z,1006.79
2019-04-19T09:56:12.289Z,1006.78
2019-04-19T09:57:05.410Z,1006.83
2019-04-19T09:58:14.235Z,1006.73
2019-04-19T09:59:03.008Z,1006.77
2019-04-19T10:00:03.292Z,1006.78
2019-04-19T10:00:54.286Z,1006.77
2019-04-19T10:02:58.561Z,1006.79
2019-04-19T10:03:59.112Z,1006.78
2019-04-19T10:04:52.775Z,1006.77
2019-04-19T10:05:56.127Z,1006.82
2019-04-19T10:06:53.503Z,1006.77
2019-04-19T10:07:52.767Z,1006.77
2019-04-19T10:08:53.899Z,1006.79
2019-04-19T10:09:55.404Z,1006.78
2019-04-19T10:11:53.076Z,1006.83
2019-04-19T10:12:53.858Z,1006.78
2019-04-19T10:14:53.645Z,1006.80
2019-04-19T10:16:53.020Z,1006.83
2019-04-19T10:19:04.195Z,1006.79
2019-04-19T10:19:53.185Z,1006.83
2019-04-19T10:20:54.641Z,1006.83
2019-04-19T10:21:54.102Z,1006.80
2019-04-19T10:23:54.088Z,1006.82
2019-04-19T10:24:54.342Z,1006.82
2019-04-19T10:25:57.591Z,1006.84
2019-04-19T10:26:54.543Z,1006.88
2019-04-19T10:27:53.609Z,1006.90
2019-04-19T10:28:53.601Z,1006.88
2019-04-19T10:29:53.739Z,1006.99
2019-04-19T10:30:54.796Z,1006.94
2019-04-19T10:31:55.105Z,1006.94
2019-04-19T10:33:58.078Z,1006.93
2019-04-19T10:34:54.608Z,1006.98
2019-04-19T10:35:53.946Z,1006.98
2019-04-19T10:36:56.774Z,1006.95
2019-04-19T10:37:55.557Z,1006.96
2019-04-19T10:38:56.567Z,1006.89
2019-04-19T10:39:55.230Z,1006.94
2019-04-19T10:40:55.472Z,1006.93
2019-04-19T10:41:54.472Z,1006.91
2019-04-19T10:42:54.329Z,1006.86
2019-04-19T10:44:03.938Z,1006.90
2019-04-19T10:44:54.393Z,1006.91
2019-04-19T10:45:54.442Z,1006.87
2019-04-19T10:46:54.574Z,1006.89
2019-04-19T10:47:55.758Z,1006.94
2019-04-19T10:50:06.675Z,1006.92
2019-04-19T10:50:55.168Z,1006.96
2019-04-19T10:52:37.422Z,1006.96
2019-04-19T10:53:38.624Z,1006.92
2019-04-19T10:54:45.350Z,1006.96
2019-04-19T10:55:38.208Z,1007.01
2019-04-19T10:56:38.519Z,1006.97
2019-04-19T10:57:38.938Z,1007.00
2019-04-19T11:01:39.030Z,1007.03
2019-04-19T11:03:39.070Z,1006.98
2019-04-19T11:04:38.638Z,1006.99
2019-04-19T11:05:38.717Z,1006.99
2019-04-19T11:08:38.409Z,1006.97
2019-04-19T11:10:38.242Z,1006.98
2019-04-19T11:13:38.399Z,1006.99
2019-04-19T11:15:38.502Z,1006.99
2019-04-19T11:16:39.551Z,1007.01
2019-04-19T11:17:38.589Z,1007.03
2019-04-19T11:18:39.421Z,1007.01
2019-04-19T11:19:49.733Z,1006.98
2019-04-19T11:20:46.400Z,1007.01
2019-04-19T11:21:38.783Z,1007.03
2019-04-19T11:22:39.840Z,1007.05
2019-04-19T11:23:39.792Z,1007.03
2019-04-19T11:24:39.196Z,1007.06
2019-04-19T11:25:40.273Z,1007.07
2019-04-19T11:26:39.061Z,1007.03
2019-04-19T11:27:39.418Z,1006.98
2019-04-19T11:28:39.164Z,1006.99
2019-04-19T11:31:39.551Z,1007.06
2019-04-19T11:33:41.273Z,1006.99
2019-04-19T11:34:40.942Z,1007.00
2019-04-19T11:35:41.292Z,1007.04
2019-04-19T11:41:41.023Z,1007.03
2019-04-19T11:44:39.990Z,1007.02
2019-04-19T11:57:20.645Z,1007.08
2019-04-19T12:00:47.814Z,1007.06
2019-04-19T12:01:46.556Z,1007.10
2019-04-19T12:03:47.968Z,1007.07
2019-04-19T12:04:48.119Z,1007.12
2019-04-19T12:05:47.240Z,1007.11
2019-04-19T12:06:48.101Z,1007.07
2019-04-19T12:07:48.311Z,1007.09
2019-04-19T12:57:17.940Z,1007.04
2019-04-19T12:58:17.577Z,1007.08
2019-04-19T12:59:19.712Z,1007.07
2019-04-19T13:00:18.095Z,1007.03
2019-04-19T13:01:17.801Z,1007.06
2019-04-19T13:02:17.898Z,1007.03
2019-04-19T13:03:18.019Z,1007.06
2019-04-19T13:05:18.234Z,1006.96
2019-04-19T13:06:17.895Z,1006.92
2019-04-19T13:07:17.451Z,1006.89
2019-04-19T13:10:18.208Z,1006.89
2019-04-19T13:11:18.709Z,1006.89
2019-04-19T13:12:17.470Z,1006.84
2019-04-19T13:13:18.167Z,1006.85
2019-04-19T13:14:17.605Z,1006.87
2019-04-19T13:15:17.813Z,1006.84
2019-04-19T13:16:18.579Z,1006.81
2019-04-19T13:17:18.089Z,1006.85
2019-04-19T13:18:18.274Z,1006.86
2019-04-19T13:19:20.591Z,1006.84
2019-04-19T13:20:24.222Z,1006.85
2019-04-19T13:21:17.947Z,1006.86
2019-04-19T13:22:18.613Z,1006.85
2019-04-19T13:23:18.051Z,1006.80
2019-04-19T13:24:18.357Z,1006.83
2019-04-19T13:25:18.810Z,1006.83
2019-04-19T13:26:18.202Z,1006.85
2019-04-19T13:27:19.115Z,1006.78
2019-04-19T13:28:19.542Z,1006.77
2019-04-19T13:29:19.607Z,1006.80
2019-04-19T13:30:27.763Z,1006.83
2019-04-19T13:31:18.744Z,1006.80
2019-04-19T13:32:19.674Z,1006.82
2019-04-19T13:33:18.699Z,1006.73
2019-04-19T13:34:19.021Z,1006.74
2019-04-19T13:35:19.199Z,1006.75
2019-04-19T13:36:19.370Z,1006.74
2019-04-19T13:37:18.920Z,1006.76
2019-04-19T13:38:19.236Z,1006.80
2019-04-19T13:39:21.420Z,1006.83
2019-04-19T13:40:19.949Z,1006.84
2019-04-19T13:41:18.929Z,1006.82
2019-04-19T13:42:19.098Z,1006.85
2019-04-19T13:43:19.030Z,1006.77
2019-04-19T13:44:19.080Z,1006.78
2019-04-19T13:45:26.076Z,1006.78
2019-04-19T13:46:19.180Z,1006.72
2019-04-19T13:47:20.442Z,1005.59
2019-04-19T13:48:19.279Z,1006.33
2019-04-19T13:49:19.329Z,1005.66
2019-04-19T13:50:26.078Z,1006.65
2019-04-19T13:51:20.593Z,1006.12
2019-04-19T13:52:20.616Z,1006.70
2019-04-19T13:53:20.459Z,1006.67
2019-04-19T13:54:20.765Z,1006.73
2019-04-19T13:55:20.896Z,1006.70
2019-04-19T13:56:20.501Z,1006.74
2019-04-19T13:57:19.783Z,1006.69
2019-04-19T13:58:19.966Z,1006.67
2019-04-19T13:59:20.107Z,1006.69
2019-04-19T14:00:20.433Z,1006.66
2019-04-19T14:01:20.798Z,1006.65
2019-04-19T14:02:20.640Z,1006.68
2019-04-19T14:03:21.344Z,1006.68
2019-04-19T14:04:20.074Z,1006.68
2019-04-19T14:05:20.124Z,1006.70
2019-04-19T14:06:20.177Z,1006.66
2019-04-19T14:07:21.142Z,1006.47
2019-04-19T14:08:21.549Z,1006.69
2019-04-19T14:09:21.103Z,1006.62
2019-04-19T14:10:21.235Z,1006.63
2019-04-19T14:11:21.406Z,1006.60
2019-04-19T14:12:20.957Z,1006.64
2019-04-19T14:13:21.129Z,1006.59
2019-04-19T14:14:20.573Z,1006.59
2019-04-19T14:15:20.624Z,1006.56
2019-04-19T14:16:21.614Z,1006.54
2019-04-19T14:17:21.960Z,1006.63
2019-04-19T14:18:20.775Z,1006.64
2019-04-19T14:19:20.825Z,1006.65
2019-04-19T14:20:32.351Z,1006.44
2019-04-19T14:21:22.072Z,1004.93
2019-04-19T14:22:21.321Z,1004.73
2019-04-19T14:23:21.692Z,1005.11
2019-04-19T14:24:21.692Z,1006.28
2019-04-19T14:25:21.200Z,1006.44
2019-04-19T14:26:33.871Z,1005.28
2019-04-19T14:27:21.515Z,1004.76
2019-04-19T14:28:21.273Z,1004.75
2019-04-19T14:29:21.439Z,1004.76
2019-04-19T14:30:21.548Z,1004.82
2019-04-19T14:31:21.959Z,1004.84
2019-04-19T14:32:21.468Z,1004.87
2019-04-19T14:33:21.527Z,1004.90
2019-04-19T14:34:21.561Z,1004.96
2019-04-19T14:35:21.756Z,1006.24
2019-04-19T14:36:21.994Z,1004.92
2019-04-19T14:38:34.361Z,1004.91
2019-04-19T14:39:34.517Z,1005.23
2019-04-19T14:40:35.376Z,1005.60
2019-04-19T14:42:34.542Z,1006.29
2019-04-19T14:43:34.560Z,1005.60
2019-04-19T14:44:35.717Z,1005.00
2019-04-19T14:45:34.649Z,1005.60
2019-04-19T14:46:34.694Z,1006.33
2019-04-19T14:47:34.930Z,1006.32
2019-04-19T14:48:38.349Z,1006.34
2019-04-19T14:50:46.231Z,1006.26
2019-04-19T14:51:36.984Z,1006.25
2019-04-19T14:52:34.985Z,1006.23
2019-04-19T14:53:36.408Z,1006.14